sensor_id;sensor_type;location;lat;lon;timestamp;pressure;altitude;pressure_sealevel;temperature;humidity
20424;BME280;10371;49.042;8.002;2023-04-05T00:00:09;100530.03;;;1.34;77.61
20424;BME280;10371;49.042;8.002;2023-04-05T00:01:10;100528.44;;;1.30;78.43
20424;BME280;10371;49.042;8.002;2023-04-05T00:02:11;100529.38;;;1.27;78.11
20424;BME280;10371;49.042;8.002;2023-04-05T00:03:13;100530.28;;;1.26;78.11
20424;BME280;10371;49.042;8.002;2023-04-05T00:04:13;100521.69;;;1.27;78.53
20424;BME280;10371;49.042;8.002;2023-04-05T00:05:13;100525.00;;;1.31;78.28
20424;BME280;10371;49.042;8.002;2023-04-05T00:06:13;100525.94;;;1.28;78.50
20424;BME280;10371;49.042;8.002;2023-04-05T00:07:16;100520.03;;;1.25;78.78
20424;BME280;10371;49.042;8.002;2023-04-05T00:08:16;100521.47;;;1.33;78.34
20424;BME280;10371;49.042;8.002;2023-04-05T00:09:22;100516.81;;;1.46;77.27
20424;BME280;10371;49.042;8.002;2023-04-05T00:10:23;100514.94;;;1.51;76.62
20424;BME280;10371;49.042;8.002;2023-04-05T00:11:24;100517.28;;;1.59;75.86
20424;BME280;10371;49.042;8.002;2023-04-05T00:12:25;100518.69;;;1.68;75.66
20424;BME280;10371;49.042;8.002;2023-04-05T00:13:25;100514.41;;;1.68;75.72
20424;BME280;10371;49.042;8.002;2023-04-05T00:14:25;100513.47;;;1.71;75.51
20424;BME280;10371;49.042;8.002;2023-04-05T00:15:26;100520.22;;;1.73;75.47
20424;BME280;10371;49.042;8.002;2023-04-05T00:16:27;100518.53;;;1.72;75.49
20424;BME280;10371;49.042;8.002;2023-04-05T00:17:28;100514.41;;;1.68;75.75
20424;BME280;10371;49.042;8.002;2023-04-05T00:18:30;100514.44;;;1.67;75.90
20424;BME280;10371;49.042;8.002;2023-04-05T00:19:33;100517.06;;;1.65;75.55
20424;BME280;10371;49.042;8.002;2023-04-05T00:20:35;100511.13;;;1.63;75.71
20424;BME280;10371;49.042;8.002;2023-04-05T00:21:37;100512.03;;;1.62;75.71
20424;BME280;10371;49.042;8.002;2023-04-05T00:22:40;100506.06;;;1.62;75.68
20424;BME280;10371;49.042;8.002;2023-04-05T00:23:42;100513.78;;;1.62;75.45
20424;BME280;10371;49.042;8.002;2023-04-05T00:24:44;100510.34;;;1.61;75.75
20424;BME280;10371;49.042;8.002;2023-04-05T00:25:44;100517.16;;;1.62;75.61
20424;BME280;10371;49.042;8.002;2023-04-05T00:26:45;100501.81;;;1.61;75.62
20424;BME280;10371;49.042;8.002;2023-04-05T00:27:45;100502.59;;;1.63;75.44
20424;BME280;10371;49.042;8.002;2023-04-05T00:28:49;100499.22;;;1.62;75.56
20424;BME280;10371;49.042;8.002;2023-04-05T00:29:49;100508.69;;;1.60;75.39
20424;BME280;10371;49.042;8.002;2023-04-05T00:30:51;100501.00;;;1.59;75.51
20424;BME280;10371;49.042;8.002;2023-04-05T00:31:51;100507.03;;;1.58;75.75
20424;BME280;10371;49.042;8.002;2023-04-05T00:32:51;100498.63;;;1.54;76.00
20424;BME280;10371;49.042;8.002;2023-04-05T00:33:52;100513.13;;;1.55;75.92
20424;BME280;10371;49.042;8.002;2023-04-05T00:34:52;100502.00;;;1.54;75.91
20424;BME280;10371;49.042;8.002;2023-04-05T00:35:52;100508.88;;;1.54;75.77
20424;BME280;10371;49.042;8.002;2023-04-05T00:36:53;100498.72;;;1.51;75.89
20424;BME280;10371;49.042;8.002;2023-04-05T00:37:54;100500.50;;;1.49;76.02
20424;BME280;10371;49.042;8.002;2023-04-05T00:38:55;100493.75;;;1.45;76.34
20424;BME280;10371;49.042;8.002;2023-04-05T00:39:55;100500.72;;;1.41;76.68
20424;BME280;10371;49.042;8.002;2023-04-05T00:40:56;100503.47;;;1.37;76.83
20424;BME280;10371;49.042;8.002;2023-04-05T00:41:56;100498.47;;;1.32;77.10
20424;BME280;10371;49.042;8.002;2023-04-05T00:42:57;100501.16;;;1.27;77.69
20424;BME280;10371;49.042;8.002;2023-04-05T00:43:57;100505.59;;;1.22;77.87
20424;BME280;10371;49.042;8.002;2023-04-05T00:44:59;100502.34;;;1.17;77.96
20424;BME280;10371;49.042;8.002;2023-04-05T00:46:00;100503.22;;;1.16;78.49
20424;BME280;10371;49.042;8.002;2023-04-05T00:47:03;100499.09;;;1.12;78.33
20424;BME280;10371;49.042;8.002;2023-04-05T00:48:04;100505.19;;;1.08;78.80
20424;BME280;10371;49.042;8.002;2023-04-05T00:49:05;100500.13;;;1.06;78.98
20424;BME280;10371;49.042;8.002;2023-04-05T00:50:07;100500.13;;;1.06;79.23
20424;BME280;10371;49.042;8.002;2023-04-05T00:51:09;100495.00;;;1.06;79.24
20424;BME280;10371;49.042;8.002;2023-04-05T00:52:10;100492.34;;;1.08;79.01
20424;BME280;10371;49.042;8.002;2023-04-05T00:53:12;100498.28;;;1.10;78.77
20424;BME280;10371;49.042;8.002;2023-04-05T00:54:13;100486.25;;;1.12;79.02
20424;BME280;10371;49.042;8.002;2023-04-05T00:55:14;100489.69;;;1.11;78.70
20424;BME280;10371;49.042;8.002;2023-04-05T00:56:16;100494.06;;;1.09;78.98
20424;BME280;10371;49.042;8.002;2023-04-05T00:57:16;100482.16;;;1.06;78.83
20424;BME280;10371;49.042;8.002;2023-04-05T00:58:17;100487.28;;;1.06;78.96
20424;BME280;10371;49.042;8.002;2023-04-05T00:59:21;100484.75;;;1.05;79.00
20424;BME280;10371;49.042;8.002;2023-04-05T01:00:21;100482.25;;;1.03;79.02
20424;BME280;10371;49.042;8.002;2023-04-05T01:01:24;100489.84;;;1.06;78.56
20424;BME280;10371;49.042;8.002;2023-04-05T01:02:31;100488.94;;;1.09;78.51
20424;BME280;10371;49.042;8.002;2023-04-05T01:03:34;100485.47;;;1.10;78.35
20424;BME280;10371;49.042;8.002;2023-04-05T01:04:36;100484.56;;;1.11;78.27
20424;BME280;10371;49.042;8.002;2023-04-05T01:05:52;100474.41;;;1.08;77.93
20424;BME280;10371;49.042;8.002;2023-04-05T01:07:08;100474.31;;;1.11;77.71
20424;BME280;10371;49.042;8.002;2023-04-05T01:08:17;100470.19;;;1.07;78.24
20424;BME280;10371;49.042;8.002;2023-04-05T01:10:33;100471.31;;;0.98;78.67
20424;BME280;10371;49.042;8.002;2023-04-05T01:11:37;100472.34;;;0.93;78.98
20424;BME280;10371;49.042;8.002;2023-04-05T01:12:38;100474.19;;;0.87;79.24
20424;BME280;10371;49.042;8.002;2023-04-05T01:13:39;100468.34;;;0.82;79.56
20424;BME280;10371;49.042;8.002;2023-04-05T01:14:48;100470.13;;;0.80;79.71
20424;BME280;10371;49.042;8.002;2023-04-05T01:15:49;100470.22;;;0.77;80.00
20424;BME280;10371;49.042;8.002;2023-04-05T01:16:49;100463.34;;;0.79;79.54
20424;BME280;10371;49.042;8.002;2023-04-05T01:17:51;100462.53;;;0.77;79.67
20424;BME280;10371;49.042;8.002;2023-04-05T01:18:54;100468.34;;;0.82;79.42
20424;BME280;10371;49.042;8.002;2023-04-05T01:19:59;100464.88;;;0.85;79.13
20424;BME280;10371;49.042;8.002;2023-04-05T01:21:30;100455.41;;;0.87;78.85
20424;BME280;10371;49.042;8.002;2023-04-05T01:24:39;100463.84;;;0.91;78.66
20424;BME280;10371;49.042;8.002;2023-04-05T01:27:15;100460.63;;;0.84;78.72
20424;BME280;10371;49.042;8.002;2023-04-05T01:31:34;100461.81;;;0.72;79.70
20424;BME280;10371;49.042;8.002;2023-04-05T01:32:17;100456.03;;;0.67;79.78
20424;BME280;10371;49.042;8.002;2023-04-05T01:33:40;100458.66;;;0.64;80.12
20424;BME280;10371;49.042;8.002;2023-04-05T01:35:01;100454.53;;;0.58;80.27
20424;BME280;10371;49.042;8.002;2023-04-05T01:37:30;100452.38;;;0.44;80.97
20424;BME280;10371;49.042;8.002;2023-04-05T01:38:32;100442.31;;;0.38;81.43
20424;BME280;10371;49.042;8.002;2023-04-05T01:39:34;100454.41;;;0.33;81.91
20424;BME280;10371;49.042;8.002;2023-04-05T01:40:36;100455.38;;;0.29;82.14
20424;BME280;10371;49.042;8.002;2023-04-05T01:41:38;100447.00;;;0.24;82.51
20424;BME280;10371;49.042;8.002;2023-04-05T01:42:39;100449.63;;;0.21;82.55
20424;BME280;10371;49.042;8.002;2023-04-05T01:43:39;100448.06;;;0.17;82.92
20424;BME280;10371;49.042;8.002;2023-04-05T01:44:40;100452.31;;;0.16;83.22
20424;BME280;10371;49.042;8.002;2023-04-05T01:45:41;100448.13;;;0.14;83.16
20424;BME280;10371;49.042;8.002;2023-04-05T01:46:41;100449.84;;;0.13;83.14
20424;BME280;10371;49.042;8.002;2023-04-05T01:47:41;100446.56;;;0.08;83.28
20424;BME280;10371;49.042;8.002;2023-04-05T01:48:42;100451.75;;;0.07;83.72
20424;BME280;10371;49.042;8.002;2023-04-05T01:49:42;100448.34;;;0.06;83.77
20424;BME280;10371;49.042;8.002;2023-04-05T01:50:42;100449.22;;;0.05;83.93
20424;BME280;10371;49.042;8.002;2023-04-05T01:51:42;100451.69;;;0.08;84.07
20424;BME280;10371;49.042;8.002;2023-04-05T01:52:43;100443.94;;;0.11;83.68
20424;BME280;10371;49.042;8.002;2023-04-05T01:53:43;100441.34;;;0.13;83.53
20424;BME280;10371;49.042;8.002;2023-04-05T01:54:43;100440.41;;;0.15;83.43
20424;BME280;10371;49.042;8.002;2023-04-05T01:55:43;100449.00;;;0.14;82.96
20424;BME280;10371;49.042;8.002;2023-04-05T01:56:44;100440.41;;;0.15;83.33
20424;BME280;10371;49.042;8.002;2023-04-05T01:57:45;100443.81;;;0.16;83.48
20424;BME280;10371;49.042;8.002;2023-04-05T01:58:45;100442.97;;;0.15;83.16
20424;BME280;10371;49.042;8.002;2023-04-05T01:59:45;100444.63;;;0.16;83.27
20424;BME280;10371;49.042;8.002;2023-04-05T02:00:45;100442.94;;;0.17;83.64
20424;BME280;10371;49.042;8.002;2023-04-05T02:01:46;100441.25;;;0.16;83.44
20424;BME280;10371;49.042;8.002;2023-04-05T02:02:46;100446.38;;;0.16;83.45
20424;BME280;10371;49.042;8.002;2023-04-05T02:03:46;100446.28;;;0.19;83.39
20424;BME280;10371;49.042;8.002;2023-04-05T02:04:46;100439.50;;;0.18;83.30
20424;BME280;10371;49.042;8.002;2023-04-05T02:05:47;100435.25;;;0.17;83.56
20424;BME280;10371;49.042;8.002;2023-04-05T02:06:47;100438.66;;;0.17;83.30
20424;BME280;10371;49.042;8.002;2023-04-05T02:07:47;100435.25;;;0.17;83.23
20424;BME280;10371;49.042;8.002;2023-04-05T02:08:47;100435.28;;;0.15;83.57
20424;BME280;10371;49.042;8.002;2023-04-05T02:09:48;100438.59;;;0.19;83.34
20424;BME280;10371;49.042;8.002;2023-04-05T02:10:48;100440.22;;;0.23;83.49
20424;BME280;10371;49.042;8.002;2023-04-05T02:11:48;100438.47;;;0.24;83.32
20424;BME280;10371;49.042;8.002;2023-04-05T02:12:49;100433.38;;;0.22;82.97
20424;BME280;10371;49.042;8.002;2023-04-05T02:13:49;100440.97;;;0.25;82.89
20424;BME280;10371;49.042;8.002;2023-04-05T02:14:49;100440.97;;;0.25;82.88
20424;BME280;10371;49.042;8.002;2023-04-05T02:15:51;100434.19;;;0.24;82.98
20424;BME280;10371;49.042;8.002;2023-04-05T02:16:52;100438.47;;;0.24;82.72
20424;BME280;10371;49.042;8.002;2023-04-05T02:17:55;100436.72;;;0.26;82.71
20424;BME280;10371;49.042;8.002;2023-04-05T02:18:55;100439.22;;;0.27;82.60
20424;BME280;10371;49.042;8.002;2023-04-05T02:19:56;100437.47;;;0.29;82.54
20424;BME280;10371;49.042;8.002;2023-04-05T02:21:05;100440.84;;;0.30;82.28
20424;BME280;10371;49.042;8.002;2023-04-05T02:22:06;100438.34;;;0.28;82.36
20424;BME280;10371;49.042;8.002;2023-04-05T02:23:07;100435.81;;;0.28;82.05
20424;BME280;10371;49.042;8.002;2023-04-05T02:24:07;100434.09;;;0.27;82.28
20424;BME280;10371;49.042;8.002;2023-04-05T02:25:08;100435.84;;;0.25;82.06
20424;BME280;10371;49.042;8.002;2023-04-05T02:26:08;100433.34;;;0.24;82.25
20424;BME280;10371;49.042;8.002;2023-04-05T02:27:08;100427.44;;;0.21;82.28
20424;BME280;10371;49.042;8.002;2023-04-05T02:28:09;100425.69;;;0.24;82.43
20424;BME280;10371;49.042;8.002;2023-04-05T02:29:10;100426.50;;;0.24;82.29
20424;BME280;10371;49.042;8.002;2023-04-05T02:30:10;100424.00;;;0.22;82.34
20424;BME280;10371;49.042;8.002;2023-04-05T02:31:13;100431.63;;;0.24;82.30
20424;BME280;10371;49.042;8.002;2023-04-05T02:32:13;100432.53;;;0.23;82.18
20424;BME280;10371;49.042;8.002;2023-04-05T02:33:13;100431.59;;;0.26;82.47
20424;BME280;10371;49.042;8.002;2023-04-05T02:34:14;100435.84;;;0.25;82.45
20424;BME280;10371;49.042;8.002;2023-04-05T02:35:14;100435.91;;;0.24;82.31
20424;BME280;10371;49.042;8.002;2023-04-05T02:36:16;100434.19;;;0.24;82.07
20424;BME280;10371;49.042;8.002;2023-04-05T02:37:17;100435.00;;;0.26;82.05
20424;BME280;10371;49.042;8.002;2023-04-05T02:38:18;100431.63;;;0.24;81.92
20424;BME280;10371;49.042;8.002;2023-04-05T02:39:18;100430.78;;;0.24;82.06
20424;BME280;10371;49.042;8.002;2023-04-05T02:40:19;100432.63;;;0.20;82.24
20424;BME280;10371;49.042;8.002;2023-04-05T02:41:20;100433.53;;;0.17;82.74
20424;BME280;10371;49.042;8.002;2023-04-05T02:42:22;100431.84;;;0.16;82.46
20424;BME280;10371;49.042;8.002;2023-04-05T02:43:23;100431.16;;;0.11;82.69
20424;BME280;10371;49.042;8.002;2023-04-05T02:44:23;100431.19;;;0.10;83.08
20424;BME280;10371;49.042;8.002;2023-04-05T02:45:24;100438.94;;;0.07;83.49
20424;BME280;10371;49.042;8.002;2023-04-05T02:46:26;100428.75;;;0.05;83.44
20424;BME280;10371;49.042;8.002;2023-04-05T02:47:26;100429.59;;;0.06;83.11
20424;BME280;10371;49.042;8.002;2023-04-05T02:48:27;100424.53;;;0.03;83.45
20424;BME280;10371;49.042;8.002;2023-04-05T02:49:27;100424.53;;;0.03;83.24
20424;BME280;10371;49.042;8.002;2023-04-05T02:50:27;100424.53;;;0.03;83.59
20424;BME280;10371;49.042;8.002;2023-04-05T02:51:27;100423.72;;;0.02;83.10
20424;BME280;10371;49.042;8.002;2023-04-05T02:52:28;100431.44;;;0.01;83.68
20424;BME280;10371;49.042;8.002;2023-04-05T02:53:28;100432.31;;;-0.01;83.60
20424;BME280;10371;49.042;8.002;2023-04-05T02:54:28;100422.13;;;-0.02;83.52
20424;BME280;10371;49.042;8.002;2023-04-05T02:55:28;100423.00;;;-0.03;83.26
20424;BME280;10371;49.042;8.002;2023-04-05T02:56:30;100427.34;;;-0.07;83.35
20424;BME280;10371;49.042;8.002;2023-04-05T02:57:30;100424.81;;;-0.07;83.13
20424;BME280;10371;49.042;8.002;2023-04-05T02:58:30;100431.53;;;-0.03;82.76
20424;BME280;10371;49.042;8.002;2023-04-05T02:59:31;100424.63;;;-0.01;82.87
20424;BME280;10371;49.042;8.002;2023-04-05T03:00:31;100422.03;;;0.01;82.60
20424;BME280;10371;49.042;8.002;2023-04-05T03:01:32;100428.81;;;0.02;82.77
20424;BME280;10371;49.042;8.002;2023-04-05T03:02:35;100429.66;;;0.03;82.80
20424;BME280;10371;49.042;8.002;2023-04-05T03:03:36;100428.88;;;0.01;82.58
20424;BME280;10371;49.042;8.002;2023-04-05T03:04:39;100425.44;;;0.02;82.60
20424;BME280;10371;49.042;8.002;2023-04-05T03:05:40;100425.44;;;0.02;82.69
20424;BME280;10371;49.042;8.002;2023-04-05T03:06:42;100429.63;;;0.04;82.62
20424;BME280;10371;49.042;8.002;2023-04-05T03:07:45;100433.84;;;0.05;82.45
20424;BME280;10371;49.042;8.002;2023-04-05T03:08:46;100420.28;;;0.03;82.32
20424;BME280;10371;49.042;8.002;2023-04-05T03:09:48;100424.44;;;0.07;82.34
20424;BME280;10371;49.042;8.002;2023-04-05T03:10:53;100422.59;;;0.11;81.77
20424;BME280;10371;49.042;8.002;2023-04-05T03:11:53;100422.53;;;0.14;81.29
20424;BME280;10371;49.042;8.002;2023-04-05T03:12:53;100425.88;;;0.16;81.24
20424;BME280;10371;49.042;8.002;2023-04-05T03:13:54;100423.31;;;0.16;81.15
20424;BME280;10371;49.042;8.002;2023-04-05T03:14:54;100418.25;;;0.14;80.96
20424;BME280;10371;49.042;8.002;2023-04-05T03:15:54;100419.00;;;0.18;80.66
20424;BME280;10371;49.042;8.002;2023-04-05T03:16:55;100417.34;;;0.17;80.70
20424;BME280;10371;49.042;8.002;2023-04-05T03:17:56;100421.50;;;0.19;80.61
20424;BME280;10371;49.042;8.002;2023-04-05T03:18:56;100423.22;;;0.20;80.49
20424;BME280;10371;49.042;8.002;2023-04-05T03:19:56;100423.16;;;0.22;80.25
20424;BME280;10371;49.042;8.002;2023-04-05T03:20:57;100424.03;;;0.21;80.32
20424;BME280;10371;49.042;8.002;2023-04-05T03:21:57;100420.47;;;0.27;80.23
20424;BME280;10371;49.042;8.002;2023-04-05T03:22:58;100417.91;;;0.27;80.03
20424;BME280;10371;49.042;8.002;2023-04-05T03:23:58;100418.81;;;0.26;79.77
20424;BME280;10371;49.042;8.002;2023-04-05T03:24:59;100415.31;;;0.28;79.50
20424;BME280;10371;49.042;8.002;2023-04-05T03:26:00;100417.88;;;0.28;79.42
20424;BME280;10371;49.042;8.002;2023-04-05T03:27:02;100423.00;;;0.28;79.39
20424;BME280;10371;49.042;8.002;2023-04-05T03:28:05;100417.78;;;0.31;79.19
20424;BME280;10371;49.042;8.002;2023-04-05T03:29:07;100419.53;;;0.29;79.21
20424;BME280;10371;49.042;8.002;2023-04-05T03:30:08;100420.34;;;0.31;79.34
20424;BME280;10371;49.042;8.002;2023-04-05T03:31:08;100421.22;;;0.30;79.21
20424;BME280;10371;49.042;8.002;2023-04-05T03:32:08;100420.50;;;0.25;79.68
20424;BME280;10371;49.042;8.002;2023-04-05T03:33:10;100422.19;;;0.26;79.30
20424;BME280;10371;49.042;8.002;2023-04-05T03:34:11;100419.66;;;0.25;79.52
20424;BME280;10371;49.042;8.002;2023-04-05T03:35:11;100422.19;;;0.26;79.52
20424;BME280;10371;49.042;8.002;2023-04-05T03:36:12;100425.78;;;0.19;79.98
20424;BME280;10371;49.042;8.002;2023-04-05T03:37:15;100424.94;;;0.20;79.74
20424;BME280;10371;49.042;8.002;2023-04-05T03:38:15;100428.31;;;0.20;79.79
20424;BME280;10371;49.042;8.002;2023-04-05T03:39:16;100432.69;;;0.17;79.85
20424;BME280;10371;49.042;8.002;2023-04-05T03:40:16;100423.50;;;0.10;80.51
20424;BME280;10371;49.042;8.002;2023-04-05T03:41:16;100428.78;;;0.04;80.88
20424;BME280;10371;49.042;8.002;2023-04-05T03:42:17;100431.53;;;-0.03;81.03
20424;BME280;10371;49.042;8.002;2023-04-05T03:43:17;100429.03;;;-0.06;81.32
20424;BME280;10371;49.042;8.002;2023-04-05T03:44:17;100428.38;;;-0.12;82.02
20424;BME280;10371;49.042;8.002;2023-04-05T03:45:18;100424.97;;;-0.13;81.75
20424;BME280;10371;49.042;8.002;2023-04-05T03:46:19;100424.97;;;-0.13;81.53
20424;BME280;10371;49.042;8.002;2023-04-05T03:47:19;100416.56;;;-0.16;81.93
20424;BME280;10371;49.042;8.002;2023-04-05T03:48:20;100420.78;;;-0.15;81.86
20424;BME280;10371;49.042;8.002;2023-04-05T03:49:20;100423.22;;;-0.11;81.55
20424;BME280;10371;49.042;8.002;2023-04-05T03:50:21;100423.22;;;-0.11;81.47
20424;BME280;10371;49.042;8.002;2023-04-05T03:51:21;100424.06;;;-0.10;81.72
20424;BME280;10371;49.042;8.002;2023-04-05T03:52:21;100422.31;;;-0.08;81.40
20424;BME280;10371;49.042;8.002;2023-04-05T03:53:22;100423.06;;;-0.05;81.12
20424;BME280;10371;49.042;8.002;2023-04-05T03:54:22;100420.59;;;-0.09;81.24
20424;BME280;10371;49.042;8.002;2023-04-05T03:55:22;100423.22;;;-0.11;81.34
20424;BME280;10371;49.042;8.002;2023-04-05T03:56:23;100422.31;;;-0.08;81.42
20424;BME280;10371;49.042;8.002;2023-04-05T03:57:24;100419.59;;;-0.04;81.00
20424;BME280;10371;49.042;8.002;2023-04-05T03:58:27;100419.59;;;-0.04;80.94
20424;BME280;10371;49.042;8.002;2023-04-05T03:59:27;100419.50;;;-0.01;80.91
20424;BME280;10371;49.042;8.002;2023-04-05T04:00:28;100417.00;;;-0.02;80.80
20424;BME280;10371;49.042;8.002;2023-04-05T04:01:29;100414.53;;;-0.05;80.94
20424;BME280;10371;49.042;8.002;2023-04-05T04:02:30;100411.97;;;-0.05;81.12
20424;BME280;10371;49.042;8.002;2023-04-05T04:03:30;100417.22;;;-0.11;81.23
20424;BME280;10371;49.042;8.002;2023-04-05T04:04:30;100414.00;;;-0.18;81.60
20424;BME280;10371;49.042;8.002;2023-04-05T04:05:31;100421.88;;;-0.24;82.12
20424;BME280;10371;49.042;8.002;2023-04-05T04:06:32;100416.09;;;-0.32;82.75
20424;BME280;10371;49.042;8.002;2023-04-05T04:07:32;100421.41;;;-0.40;83.10
20424;BME280;10371;49.042;8.002;2023-04-05T04:08:32;100411.44;;;-0.49;83.75
20424;BME280;10371;49.042;8.002;2023-04-05T04:09:33;100419.13;;;-0.51;83.84
20424;BME280;10371;49.042;8.002;2023-04-05T04:10:33;100423.47;;;-0.53;84.19
20424;BME280;10371;49.042;8.002;2023-04-05T04:11:33;100423.50;;;-0.56;84.38
20424;BME280;10371;49.042;8.002;2023-04-05T04:12:34;100414.16;;;-0.55;84.68
20424;BME280;10371;49.042;8.002;2023-04-05T04:13:34;100421.81;;;-0.55;84.98
20424;BME280;10371;49.042;8.002;2023-04-05T04:14:35;100420.03;;;-0.52;84.39
20424;BME280;10371;49.042;8.002;2023-04-05T04:15:35;100418.22;;;-0.48;84.55
20424;BME280;10371;49.042;8.002;2023-04-05T04:16:35;100418.28;;;-0.50;84.53
20424;BME280;10371;49.042;8.002;2023-04-05T04:17:36;100413.09;;;-0.48;84.05
20424;BME280;10371;49.042;8.002;2023-04-05T04:18:36;100409.72;;;-0.49;84.32
20424;BME280;10371;49.042;8.002;2023-04-05T04:19:36;100405.47;;;-0.50;84.38
20424;BME280;10371;49.042;8.002;2023-04-05T04:20:37;100413.16;;;-0.50;84.33
20424;BME280;10371;49.042;8.002;2023-04-05T04:21:38;100410.47;;;-0.45;83.73
20424;BME280;10371;49.042;8.002;2023-04-05T04:22:38;100412.09;;;-0.42;83.76
20424;BME280;10371;49.042;8.002;2023-04-05T04:23:39;100409.59;;;-0.44;83.89
20424;BME280;10371;49.042;8.002;2023-04-05T04:24:39;100413.88;;;-0.44;83.86
20424;BME280;10371;49.042;8.002;2023-04-05T04:25:39;100414.75;;;-0.46;83.67
20424;BME280;10371;49.042;8.002;2023-04-05T04:26:41;100409.63;;;-0.46;83.96
20424;BME280;10371;49.042;8.002;2023-04-05T04:27:43;100413.88;;;-0.44;83.56
20424;BME280;10371;49.042;8.002;2023-04-05T04:28:43;100411.31;;;-0.44;83.82
20424;BME280;10371;49.042;8.002;2023-04-05T04:29:43;100402.84;;;-0.47;83.66
20424;BME280;10371;49.042;8.002;2023-04-05T04:30:46;100413.88;;;-0.44;83.64
20424;BME280;10371;49.042;8.002;2023-04-05T04:31:46;100407.91;;;-0.45;83.37
20424;BME280;10371;49.042;8.002;2023-04-05T04:32:48;100402.84;;;-0.47;83.70
20424;BME280;10371;49.042;8.002;2023-04-05T04:33:54;100401.94;;;-0.46;83.63
20424;BME280;10371;49.042;8.002;2023-04-05T04:34:55;100401.94;;;-0.46;83.30
20424;BME280;10371;49.042;8.002;2023-04-05T04:35:55;100401.09;;;-0.44;83.26
20424;BME280;10371;49.042;8.002;2023-04-05T04:36:55;100396.75;;;-0.42;83.19
20424;BME280;10371;49.042;8.002;2023-04-05T04:38:00;100400.94;;;-0.38;82.51
20424;BME280;10371;49.042;8.002;2023-04-05T04:39:01;100396.66;;;-0.39;82.33
20424;BME280;10371;49.042;8.002;2023-04-05T04:40:05;100398.28;;;-0.35;82.11
20424;BME280;10371;49.042;8.002;2023-04-05T04:41:11;100402.44;;;-0.31;82.03
20424;BME280;10371;49.042;8.002;2023-04-05T04:42:12;100398.13;;;-0.29;81.51
20424;BME280;10371;49.042;8.002;2023-04-05T04:43:14;100400.66;;;-0.28;81.00
20424;BME280;10371;49.042;8.002;2023-04-05T04:44:17;100392.91;;;-0.26;80.72
20424;BME280;10371;49.042;8.002;2023-04-05T04:45:27;100396.44;;;-0.30;81.10
20424;BME280;10371;49.042;8.002;2023-04-05T04:46:29;100402.34;;;-0.28;80.94
20424;BME280;10371;49.042;8.002;2023-04-05T04:47:33;100402.28;;;-0.25;80.93
20424;BME280;10371;49.042;8.002;2023-04-05T04:48:34;100391.25;;;-0.27;81.10
20424;BME280;10371;49.042;8.002;2023-04-05T04:49:37;100393.91;;;-0.32;80.76
20424;BME280;10371;49.042;8.002;2023-04-05T04:50:37;100400.66;;;-0.28;80.79
20424;BME280;10371;49.042;8.002;2023-04-05T04:51:38;100395.56;;;-0.29;81.13
20424;BME280;10371;49.042;8.002;2023-04-05T04:52:39;100399.78;;;-0.28;80.91
20424;BME280;10371;49.042;8.002;2023-04-05T04:53:39;100400.69;;;-0.29;81.13
20424;BME280;10371;49.042;8.002;2023-04-05T04:54:40;100396.53;;;-0.33;81.18
20424;BME280;10371;49.042;8.002;2023-04-05T04:55:41;100407.63;;;-0.34;81.29
20424;BME280;10371;49.042;8.002;2023-04-05T04:56:42;100397.47;;;-0.37;81.92
20424;BME280;10371;49.042;8.002;2023-04-05T04:57:42;100407.69;;;-0.36;81.29
20424;BME280;10371;49.042;8.002;2023-04-05T04:58:42;100398.41;;;-0.40;81.62
20424;BME280;10371;49.042;8.002;2023-04-05T04:59:43;100395.91;;;-0.41;81.44
20424;BME280;10371;49.042;8.002;2023-04-05T05:00:43;100397.59;;;-0.42;81.37
20424;BME280;10371;49.042;8.002;2023-04-05T05:01:44;100401.00;;;-0.41;81.40
20424;BME280;10371;49.042;8.002;2023-04-05T05:02:45;100403.56;;;-0.41;81.51
20424;BME280;10371;49.042;8.002;2023-04-05T05:03:45;100398.53;;;-0.44;81.04
20424;BME280;10371;49.042;8.002;2023-04-05T05:04:45;100403.56;;;-0.41;81.49
20424;BME280;10371;49.042;8.002;2023-04-05T05:05:48;100401.13;;;-0.46;81.41
20424;BME280;10371;49.042;8.002;2023-04-05T05:06:51;100404.66;;;-0.50;82.00
20424;BME280;10371;49.042;8.002;2023-04-05T05:07:51;100402.13;;;-0.53;81.76
20424;BME280;10371;49.042;8.002;2023-04-05T05:08:53;100411.50;;;-0.52;81.88
20424;BME280;10371;49.042;8.002;2023-04-05T05:09:53;100406.47;;;-0.55;82.20
20424;BME280;10371;49.042;8.002;2023-04-05T05:10:53;100414.19;;;-0.57;82.31
20424;BME280;10371;49.042;8.002;2023-04-05T05:11:54;100422.75;;;-0.59;82.84
20424;BME280;10371;49.042;8.002;2023-04-05T05:12:58;100416.78;;;-0.58;82.74
20424;BME280;10371;49.042;8.002;2023-04-05T05:13:58;100422.84;;;-0.62;82.83
20424;BME280;10371;49.042;8.002;2023-04-05T05:14:58;100422.81;;;-0.61;83.10
20424;BME280;10371;49.042;8.002;2023-04-05T05:15:59;100422.00;;;-0.63;83.17
20424;BME280;10371;49.042;8.002;2023-04-05T05:17:00;100428.78;;;-0.62;82.97
20424;BME280;10371;49.042;8.002;2023-04-05T05:18:01;100429.69;;;-0.63;83.24
20424;BME280;10371;49.042;8.002;2023-04-05T05:19:02;100420.28;;;-0.62;83.31
20424;BME280;10371;49.042;8.002;2023-04-05T05:20:02;100427.06;;;-0.61;83.65
20424;BME280;10371;49.042;8.002;2023-04-05T05:21:09;100428.69;;;-0.57;83.10
20424;BME280;10371;49.042;8.002;2023-04-05T05:22:09;100422.69;;;-0.56;83.38
20424;BME280;10371;49.042;8.002;2023-04-05T05:23:10;100424.31;;;-0.54;83.31
20424;BME280;10371;49.042;8.002;2023-04-05T05:24:10;100422.56;;;-0.52;83.50
20424;BME280;10371;49.042;8.002;2023-04-05T05:25:10;100418.28;;;-0.50;83.63
20424;BME280;10371;49.042;8.002;2023-04-05T05:26:12;100432.56;;;-0.42;83.29
20424;BME280;10371;49.042;8.002;2023-04-05T05:27:13;100432.34;;;-0.33;83.21
20424;BME280;10371;49.042;8.002;2023-04-05T05:28:13;100437.38;;;-0.30;82.53
20424;BME280;10371;49.042;8.002;2023-04-05T05:29:14;100434.59;;;-0.23;82.50
20424;BME280;10371;49.042;8.002;2023-04-05T05:30:14;100439.56;;;-0.16;81.94
20424;BME280;10371;49.042;8.002;2023-04-05T05:31:14;100435.16;;;-0.11;81.51
20424;BME280;10371;49.042;8.002;2023-04-05T05:32:16;100437.56;;;-0.05;81.40
20424;BME280;10371;49.042;8.002;2023-04-05T05:33:16;100432.28;;;0.01;81.06